createdAt,value
2022-08-18T00:02:25.008Z,50.18
2022-08-18T00:04:57.360Z,50.00
2022-08-18T00:07:31.701Z,50.04
2022-08-18T00:10:00.253Z,50.15
2022-08-18T00:12:47.400Z,50.02
2022-08-18T00:15:17.933Z,50.56
2022-08-18T00:17:45.555Z,50.29
2022-08-18T00:20:21.775Z,50.29
2022-08-18T00:22:49.958Z,50.42
2022-08-18T00:25:19.189Z,50.50
2022-08-18T00:27:46.177Z,50.43
2022-08-18T00:30:18.762Z,50.46
2022-08-18T00:32:51.512Z,50.38
2022-08-18T00:35:37.909Z,50.59
2022-08-18T00:38:08.052Z,50.71
2022-08-18T00:40:54.524Z,50.76
2022-08-18T00:43:48.054Z,50.57
2022-08-18T00:46:36.958Z,50.90
2022-08-18T00:49:05.833Z,50.98
2022-08-18T00:51:46.736Z,51.02
2022-08-18T00:54:23.269Z,50.92
2022-08-18T00:56:58.332Z,51.07
2022-08-18T00:59:50.817Z,51.04
2022-08-18T01:02:24.773Z,51.10
2022-08-18T01:04:56.682Z,51.16
2022-08-18T01:07:45.899Z,51.06
2022-08-18T01:10:16.594Z,51.36
2022-08-18T01:12:46.813Z,51.06
2022-08-18T01:15:29.164Z,51.23
2022-08-18T01:18:34.827Z,50.99
2022-08-18T01:21:34.403Z,51.19
2022-08-18T01:24:05.199Z,51.22
2022-08-18T01:26:37.799Z,51.34
2022-08-18T01:29:18.551Z,51.36
2022-08-18T01:31:55.455Z,51.49
2022-08-18T01:34:27.395Z,51.23
2022-08-18T01:36:55.458Z,51.39
2022-08-18T01:41:25.075Z,51.15
2022-08-18T01:42:11.563Z,51.45
2022-08-18T01:44:41.497Z,51.43
2022-08-18T01:47:11.509Z,51.26
2022-08-18T01:49:43.099Z,51.38
2022-08-18T01:52:17.826Z,51.43
2022-08-18T01:54:44.671Z,51.43
2022-08-18T01:57:14.569Z,51.37
2022-08-18T01:59:43.001Z,51.64
2022-08-18T02:02:18.558Z,51.42
2022-08-18T02:04:47.415Z,51.60
2022-08-18T02:07:14.898Z,51.40
2022-08-18T02:09:43.153Z,51.67
2022-08-18T02:12:11.306Z,51.75
2022-08-18T02:14:39.094Z,51.60
2022-08-18T02:17:09.350Z,51.75
2022-08-18T02:19:40.782Z,52.04
2022-08-18T02:22:09.740Z,51.91
2022-08-18T02:24:37.669Z,52.03
2022-08-18T02:27:05.429Z,52.13
2022-08-18T02:33:38.911Z,52.24
2022-08-18T02:36:14.708Z,52.25
2022-08-18T02:38:42.800Z,52.25
2022-08-18T02:41:12.725Z,52.26
2022-08-18T02:43:41.997Z,52.36
2022-08-18T02:46:09.898Z,52.29
2022-08-18T02:48:36.694Z,52.58
2022-08-18T02:51:16.033Z,52.46
2022-08-18T02:53:46.950Z,52.53
2022-08-18T02:56:40.100Z,52.78
2022-08-18T02:59:14.957Z,52.75
2022-08-18T03:01:46.061Z,52.80
2022-08-18T03:04:17.500Z,52.67
2022-08-18T03:06:45.332Z,52.88
2022-08-18T03:09:16.142Z,53.00
2022-08-18T03:11:43.817Z,53.04
2022-08-18T03:14:11.810Z,53.17
2022-08-18T03:16:45.662Z,53.24
2022-08-18T03:19:31.823Z,53.33
2022-08-18T03:22:02.814Z,53.27
2022-08-18T03:24:32.781Z,53.48
2022-08-18T03:27:01.502Z,53.49
2022-08-18T03:29:32.360Z,53.47
2022-08-18T03:32:01.490Z,53.74
2022-08-18T03:34:28.363Z,53.91
2022-08-18T03:36:55.305Z,53.84
2022-08-18T03:39:25.215Z,53.88
2022-08-18T03:42:01.016Z,54.21
2022-08-18T03:44:38.445Z,54.17
2022-08-18T03:47:11.839Z,54.16
2022-08-18T03:49:39.291Z,54.47
2022-08-18T03:52:09.655Z,54.20
2022-08-18T03:54:38.804Z,54.25
2022-08-18T03:57:09.287Z,54.35
2022-08-18T03:59:36.101Z,54.49
2022-08-18T04:02:05.066Z,54.12
2022-08-18T04:04:32.217Z,53.98
2022-08-18T04:07:06.043Z,54.19
2022-08-18T04:09:35.095Z,54.00
2022-08-18T04:12:15.454Z,53.96
2022-08-18T04:14:48.636Z,54.12
2022-08-18T04:17:23.372Z,54.30
2022-08-18T04:19:52.246Z,54.36
2022-08-18T04:22:19.121Z,54.31
2022-08-18T04:24:46.883Z,54.24
2022-08-18T04:27:13.794Z,54.36
2022-08-18T04:29:40.580Z,54.20
2022-08-18T04:32:07.855Z,54.43
2022-08-18T04:34:35.425Z,54.41
2022-08-18T04:37:02.912Z,54.36
2022-08-18T04:39:30.193Z,54.46
2022-08-18T04:41:57.006Z,54.32
2022-08-18T04:44:23.796Z,54.43
2022-08-18T04:46:53.190Z,54.39
2022-08-18T04:49:25.709Z,54.31
2022-08-18T04:52:36.098Z,54.45
2022-08-18T04:55:01.015Z,54.63
2022-08-18T04:57:29.011Z,54.66
2022-08-18T05:00:00.700Z,54.80
2022-08-18T05:02:28.080Z,55.13
2022-08-18T05:04:55.011Z,55.19
2022-08-18T05:07:25.534Z,54.89
2022-08-18T05:09:54.939Z,55.12
2022-08-18T05:12:25.827Z,54.73
2022-08-18T05:14:54.331Z,54.83
2022-08-18T05:17:21.136Z,54.48
2022-08-18T05:19:49.751Z,54.35
2022-08-18T05:22:19.582Z,54.30
2022-08-18T05:24:54.589Z,54.00
2022-08-18T05:27:21.485Z,53.71
2022-08-18T05:29:51.578Z,53.54
2022-08-18T05:32:38.274Z,53.40
2022-08-18T05:35:14.116Z,53.22
2022-08-18T05:37:59.737Z,52.80
2022-08-18T05:40:26.777Z,53.01
2022-08-18T05:42:57.342Z,53.04
2022-08-18T05:45:24.766Z,53.01
2022-08-18T05:47:51.763Z,53.31
2022-08-18T05:50:20.947Z,53.14
2022-08-18T05:52:59.157Z,52.71
2022-08-18T05:55:56.246Z,52.85
2022-08-18T05:58:33.334Z,52.76
2022-08-18T06:01:14.174Z,52.68
2022-08-18T06:03:48.981Z,52.10
2022-08-18T06:06:22.912Z,51.86
2022-08-18T06:09:03.683Z,52.13
2022-08-18T06:11:30.473Z,52.45
2022-08-18T06:13:59.488Z,52.21
2022-08-18T06:17:04.938Z,52.50
2022-08-18T06:20:04.706Z,52.42
2022-08-18T06:23:18.189Z,52.95
2022-08-18T06:26:19.766Z,53.17
2022-08-18T06:29:16.389Z,53.61
2022-08-18T06:32:05.349Z,53.56
2022-08-18T06:34:43.818Z,54.08
2022-08-18T06:37:18.719Z,54.22
2022-08-18T06:39:52.320Z,54.30
2022-08-18T06:42:30.371Z,54.41
2022-08-18T06:45:12.681Z,54.38
2022-08-18T06:48:05.993Z,54.59
2022-08-18T06:50:54.400Z,54.80
2022-08-18T06:53:28.048Z,55.01
2022-08-18T06:55:55.933Z,55.03
2022-08-18T06:58:30.456Z,55.26
2022-08-18T07:01:01.914Z,55.13
2022-08-18T07:03:43.834Z,55.46
2022-08-18T07:06:23.311Z,55.09
2022-08-18T07:08:55.708Z,55.16
2022-08-18T07:11:34.078Z,55.10
2022-08-18T07:14:22.845Z,55.12
2022-08-18T07:16:59.813Z,55.39
2022-08-18T07:19:30.933Z,55.09
2022-08-18T07:22:07.271Z,55.45
2022-08-18T07:24:44.599Z,55.54
2022-08-18T07:27:19.175Z,55.19
2022-08-18T07:30:25.146Z,55.18
2022-08-18T07:33:21.154Z,55.20
2022-08-18T07:35:59.652Z,55.24
2022-08-18T07:38:45.285Z,55.25
2022-08-18T07:41:20.405Z,55.12
2022-08-18T07:43:52.633Z,55.12
2022-08-18T07:46:45.776Z,54.98
2022-08-18T07:49:22.305Z,55.25
2022-08-18T07:51:57.754Z,55.06
2022-08-18T07:54:54.812Z,55.14
2022-08-18T07:57:46.403Z,54.96
2022-08-18T08:00:57.455Z,55.01
2022-08-18T08:04:25.711Z,54.69
2022-08-18T08:07:24.929Z,54.82
2022-08-18T08:10:22.596Z,55.15
2022-08-18T08:13:31.280Z,54.49
2022-08-18T08:16:22.663Z,54.52
2022-08-18T08:19:59.003Z,54.28
2022-08-18T08:22:41.275Z,54.36
2022-08-18T08:25:46.420Z,54.25
2022-08-18T08:28:51.377Z,54.32
2022-08-18T08:31:59.639Z,53.84
2022-08-18T08:34:53.470Z,53.87
2022-08-18T08:37:33.288Z,53.25
2022-08-18T08:40:13.644Z,52.85
2022-08-18T08:42:55.087Z,52.43
2022-08-18T08:45:32.681Z,52.33
2022-08-18T08:48:14.627Z,52.30
2022-08-18T08:50:57.092Z,52.33
2022-08-18T08:53:38.337Z,52.37
2022-08-18T08:56:15.687Z,52.04
2022-08-18T08:59:01.260Z,52.42
2022-08-18T09:01:32.451Z,52.36
2022-08-18T09:04:28.036Z,52.53
2022-08-18T09:07:23.510Z,52.58
2022-08-18T09:10:30.285Z,52.35
2022-08-18T09:13:34.842Z,52.36
2022-08-18T09:16:38.579Z,52.00
2022-08-18T09:19:31.702Z,51.68
2022-08-18T09:22:36.758Z,51.61
2022-08-18T09:25:39.226Z,51.15
2022-08-18T09:28:39.414Z,51.11
2022-08-18T09:31:07.277Z,50.73
2022-08-18T09:33:44.414Z,50.58
2022-08-18T09:36:45.653Z,50.48
2022-08-18T09:39:58.939Z,50.27
2022-08-18T09:42:51.638Z,50.86
2022-08-18T09:45:33.333Z,50.61
2022-08-18T09:48:12.841Z,50.78
2022-08-18T09:50:57.618Z,50.29
2022-08-18T09:53:45.727Z,50.46
2022-08-18T09:56:15.707Z,50.09
2022-08-18T09:58:55.929Z,50.11
2022-08-18T10:01:34.388Z,50.51
2022-08-18T10:04:15.380Z,50.68
2022-08-18T10:06:48.221Z,50.14
2022-08-18T10:09:36.862Z,50.23
2022-08-18T10:12:27.338Z,50.44
2022-08-18T10:15:32.882Z,50.58
2022-08-18T10:21:31.169Z,50.41
2022-08-18T10:24:32.278Z,50.33
2022-08-18T10:26:54.969Z,50.42
2022-08-18T10:29:25.893Z,50.23
2022-08-18T10:31:56.011Z,49.71
2022-08-18T10:34:51.897Z,50.07
2022-08-18T10:37:38.828Z,50.13
2022-08-18T10:40:14.226Z,49.91
2022-08-18T10:42:53.143Z,49.71
2022-08-18T10:45:30.082Z,49.68
2022-08-18T10:48:31.840Z,49.69
2022-08-18T10:54:18.793Z,49.45
2022-08-18T10:57:08.564Z,49.60
2022-08-18T10:59:57.692Z,49.05
2022-08-18T11:02:43.996Z,49.27
2022-08-18T11:05:17.108Z,49.22
2022-08-18T11:07:52.102Z,48.91
2022-08-18T11:10:57.739Z,48.66
2022-08-18T11:13:58.495Z,48.60
2022-08-18T11:17:07.038Z,48.94
2022-08-18T11:19:43.268Z,48.79
2022-08-18T11:22:31.482Z,48.69
2022-08-18T11:25:01.081Z,48.66
2022-08-18T11:27:37.476Z,48.63
2022-08-18T11:30:09.872Z,48.12
2022-08-18T11:32:42.659Z,47.98
2022-08-18T11:35:27.644Z,48.08
2022-08-18T11:38:04.026Z,47.93
2022-08-18T11:41:10.819Z,48.20
2022-08-18T11:43:30.016Z,47.82
2022-08-18T11:46:37.083Z,47.47
2022-08-18T11:49:26.317Z,47.51
2022-08-18T11:52:03.223Z,47.06
2022-08-18T11:57:54.365Z,47.04
2022-08-18T12:00:46.477Z,46.85
2022-08-18T12:03:31.686Z,46.43
2022-08-18T12:06:26.640Z,46.05
2022-08-18T12:09:06.476Z,45.91
2022-08-18T12:11:41.285Z,45.16
2022-08-18T12:14:31.271Z,44.63
2022-08-18T12:17:01.689Z,44.65
2022-08-18T12:19:31.086Z,43.97
2022-08-18T12:22:01.998Z,44.12
2022-08-18T12:24:39.201Z,43.84
2022-08-18T12:27:20.402Z,43.65
2022-08-18T12:29:48.147Z,43.61
2022-08-18T12:32:18.208Z,43.89
2022-08-18T12:37:59.571Z,43.19
2022-08-18T12:40:27.569Z,43.08
2022-08-18T12:42:56.056Z,42.96
2022-08-18T12:48:11.841Z,42.76
2022-08-18T12:50:50.019Z,42.53
2022-08-18T12:53:30.088Z,42.22
2022-08-18T12:56:24.865Z,42.32
2022-08-18T12:58:52.920Z,42.26
2022-08-18T13:01:21.582Z,42.32
2022-08-18T13:04:11.416Z,42.08
2022-08-18T13:07:00.140Z,42.53
2022-08-18T13:09:35.015Z,42.60
2022-08-18T13:12:14.793Z,42.44
2022-08-18T13:14:43.495Z,42.24
2022-08-18T13:17:30.298Z,42.24
2022-08-18T13:19:59.420Z,42.17
2022-08-18T13:22:32.019Z,42.04
2022-08-18T13:25:03.665Z,41.66
2022-08-18T13:27:33.639Z,41.80
2022-08-18T13:30:30.387Z,41.21
2022-08-18T13:33:02.690Z,41.28
2022-08-18T13:35:37.962Z,41.08
2022-08-18T13:38:22.094Z,41.16
2022-08-18T13:40:57.534Z,41.39
2022-08-18T13:43:39.393Z,41.46
2022-08-18T13:46:09.181Z,41.31
2022-08-18T13:48:37.731Z,41.15
2022-08-18T13:51:08.266Z,41.26
2022-08-18T13:53:50.460Z,41.22
2022-08-18T13:56:31.446Z,41.43
2022-08-18T13:58:58.822Z,41.53
2022-08-18T14:01:45.045Z,41.47
2022-08-18T14:04:15.017Z,41.55
2022-08-18T14:06:56.289Z,41.47
2022-08-18T14:09:27.722Z,41.79
2022-08-18T14:12:15.901Z,41.55
2022-08-18T14:14:53.248Z,41.68
2022-08-18T14:17:22.723Z,41.84
2022-08-18T14:20:15.281Z,42.04
2022-08-18T14:23:21.506Z,41.91
2022-08-18T14:26:08.544Z,42.11
2022-08-18T14:28:35.488Z,41.81
2022-08-18T14:31:07.036Z,42.18
2022-08-18T14:33:50.496Z,41.80
2022-08-18T14:36:20.155Z,41.87
2022-08-18T14:38:58.640Z,41.72
2022-08-18T14:41:27.198Z,42.44
2022-08-18T14:44:12.198Z,42.25
2022-08-18T14:46:40.817Z,42.06
2022-08-18T14:49:08.030Z,41.68
2022-08-18T14:51:35.344Z,41.72
2022-08-18T14:54:02.303Z,41.84
2022-08-18T14:56:29.433Z,41.98
2022-08-18T14:58:56.907Z,41.99
2022-08-18T15:01:24.708Z,42.29
2022-08-18T15:03:54.376Z,43.35
2022-08-18T15:06:26.993Z,44.25
2022-08-18T15:08:57.108Z,44.56
2022-08-18T15:11:24.973Z,45.53
2022-08-18T15:13:55.151Z,45.65
2022-08-18T15:16:27.162Z,46.63
2022-08-18T15:18:59.281Z,46.44
2022-08-18T15:21:47.825Z,47.02
2022-08-18T15:24:39.696Z,47.58
2022-08-18T15:27:10.428Z,47.74
2022-08-18T15:29:41.374Z,47.94
2022-08-18T15:32:10.233Z,48.49
2022-08-18T15:34:47.330Z,48.66
2022-08-18T15:37:20.403Z,48.65
2022-08-18T15:40:02.562Z,48.70
2022-08-18T15:42:29.839Z,48.72
2022-08-18T15:44:56.834Z,48.66
2022-08-18T15:47:25.130Z,48.76
2022-08-18T15:49:52.456Z,48.78
2022-08-18T15:52:24.473Z,48.62
2022-08-18T15:54:57.008Z,48.76
2022-08-18T15:57:39.656Z,48.81
2022-08-18T16:00:08.453Z,48.54
2022-08-18T16:02:41.058Z,48.46
2022-08-18T16:05:14.150Z,48.50
2022-08-18T16:07:45.246Z,48.42
2022-08-18T16:10:14.604Z,48.62
2022-08-18T16:12:45.766Z,49.01
2022-08-18T16:15:19.134Z,48.84
2022-08-18T16:17:47.725Z,48.45
2022-08-18T16:20:14.804Z,48.43
2022-08-18T16:22:41.688Z,48.23
2022-08-18T16:25:09.332Z,48.17
2022-08-18T16:27:41.040Z,47.88
2022-08-18T16:30:18.536Z,47.67
2022-08-18T16:32:47.131Z,47.75
2022-08-18T16:35:15.388Z,47.72
2022-08-18T16:37:43.103Z,47.95
2022-08-18T16:40:10.925Z,47.72
2022-08-18T16:42:37.857Z,47.50
2022-08-18T16:45:06.313Z,48.08
2022-08-18T16:47:38.801Z,47.92
2022-08-18T16:50:12.461Z,47.60
2022-08-18T16:52:40.084Z,48.13
2022-08-18T16:55:09.738Z,47.94
2022-08-18T16:57:58.896Z,48.33
2022-08-18T17:00:45.127Z,48.42
2022-08-18T17:03:30.844Z,48.47
2022-08-18T17:06:03.300Z,48.87
2022-08-18T17:08:34.127Z,48.92
2022-08-18T17:11:09.290Z,48.72
2022-08-18T17:13:37.783Z,48.87
2022-08-18T17:16:05.130Z,48.92
2022-08-18T17:18:32.218Z,48.77
2022-08-18T17:21:06.953Z,48.72
2022-08-18T17:23:34.608Z,48.97
2022-08-18T17:26:16.437Z,49.32
2022-08-18T17:28:52.558Z,49.23
2022-08-18T17:31:24.570Z,49.37
2022-08-18T17:33:57.701Z,49.40
2022-08-18T17:36:53.062Z,49.05
2022-08-18T17:39:26.314Z,49.42
2022-08-18T17:42:11.666Z,49.45
2022-08-18T17:44:52.149Z,49.49
2022-08-18T17:47:27.030Z,49.68
2022-08-18T17:50:27.985Z,49.95
2022-08-18T17:53:05.615Z,49.31
2022-08-18T17:55:49.705Z,49.56
2022-08-18T17:58:42.546Z,49.60
2022-08-18T18:01:12.570Z,49.71
2022-08-18T18:03:40.859Z,49.61
2022-08-18T18:06:18.159Z,49.62
2022-08-18T18:08:54.526Z,50.03
2022-08-18T18:11:31.358Z,49.73
2022-08-18T18:14:01.206Z,49.56
2022-08-18T18:16:35.402Z,50.06
2022-08-18T18:19:07.775Z,50.56
2022-08-18T18:21:55.272Z,50.17
2022-08-18T18:24:33.441Z,50.26
2022-08-18T18:27:00.718Z,50.30
2022-08-18T18:29:35.927Z,50.24
2022-08-18T18:32:48.304Z,50.51
2022-08-18T18:35:53.118Z,50.46
2022-08-18T18:38:31.943Z,50.32
2022-08-18T18:41:06.696Z,50.55
2022-08-18T18:43:41.090Z,50.58
2022-08-18T18:46:30.186Z,50.67
2022-08-18T18:49:20.706Z,50.58
2022-08-18T18:52:07.500Z,50.58
2022-08-18T18:55:06.047Z,51.13
2022-08-18T18:57:51.795Z,50.91
2022-08-18T19:00:40.533Z,51.02
2022-08-18T19:03:14.693Z,51.00
2022-08-18T19:06:15.281Z,50.78
2022-08-18T19:09:04.845Z,50.86
2022-08-18T19:12:07.108Z,50.78
2022-08-18T19:14:40.975Z,50.94
2022-08-18T19:17:13.478Z,50.79
2022-08-18T19:19:55.361Z,50.81
2022-08-18T19:22:54.691Z,50.92
2022-08-18T19:25:25.721Z,50.97
2022-08-18T19:28:07.930Z,50.85
2022-08-18T19:30:40.494Z,50.61
2022-08-18T19:33:11.427Z,50.70
2022-08-18T19:35:59.088Z,50.75
2022-08-18T19:38:42.817Z,50.51
2022-08-18T19:41:39.170Z,50.55
2022-08-18T19:44:30.200Z,50.90
2022-08-18T19:47:30.573Z,50.75
2022-08-18T19:50:21.460Z,50.92
2022-08-18T19:53:09.473Z,50.79
2022-08-18T19:55:51.138Z,50.72
2022-08-18T19:58:37.342Z,50.93
2022-08-18T20:01:47.121Z,50.67
2022-08-18T20:05:03.513Z,50.92
2022-08-18T20:08:09.235Z,51.23
2022-08-18T20:11:41.183Z,51.15
2022-08-18T20:14:13.226Z,51.35
2022-08-18T20:16:44.670Z,51.36
2022-08-18T20:19:42.901Z,51.36
2022-08-18T20:22:36.347Z,51.26
2022-08-18T20:25:42.582Z,51.40
2022-08-18T20:28:21.653Z,51.20
2022-08-18T20:31:12.748Z,51.14
2022-08-18T20:34:14.076Z,51.61
2022-08-18T20:36:43.250Z,51.33
2022-08-18T20:39:54.398Z,51.62
2022-08-18T20:42:21.113Z,51.28
2022-08-18T20:44:51.648Z,51.31
2022-08-18T20:47:45.691Z,51.65
2022-08-18T20:50:51.319Z,51.49
2022-08-18T20:53:56.177Z,51.66
2022-08-18T20:56:43.437Z,51.50
2022-08-18T20:59:39.339Z,51.90
2022-08-18T21:02:38.416Z,51.63
2022-08-18T21:05:08.933Z,51.54
2022-08-18T21:08:17.088Z,51.53
2022-08-18T21:10:49.135Z,51.63
2022-08-18T21:13:41.433Z,51.37
2022-08-18T21:16:11.550Z,51.53
2022-08-18T21:18:48.622Z,51.17
2022-08-18T21:21:30.490Z,51.07
2022-08-18T21:24:02.713Z,51.00
2022-08-18T21:26:33.059Z,51.05
2022-08-18T21:29:12.377Z,51.31
2022-08-18T21:31:45.121Z,51.04
2022-08-18T21:34:33.363Z,51.06
2022-08-18T21:37:06.345Z,50.98
2022-08-18T21:39:34.882Z,51.28
2022-08-18T21:42:02.320Z,51.32
2022-08-18T21:44:41.640Z,51.13
2022-08-18T21:47:17.341Z,51.10
2022-08-18T21:50:00.132Z,51.11
2022-08-18T21:52:30.840Z,51.37
2022-08-18T21:55:05.645Z,51.39
2022-08-18T21:58:17.876Z,51.18
2022-08-18T22:01:24.852Z,51.43
2022-08-18T22:03:58.265Z,51.53
2022-08-18T22:06:33.746Z,51.43
2022-08-18T22:09:37.723Z,51.49
2022-08-18T22:12:51.812Z,51.60
2022-08-18T22:15:26.419Z,51.67
2022-08-18T22:18:00.535Z,51.87
2022-08-18T22:20:48.342Z,51.84
2022-08-18T22:23:33.387Z,51.72
2022-08-18T22:26:25.369Z,51.72
2022-08-18T22:29:10.078Z,51.91
2022-08-18T22:31:43.259Z,52.14
2022-08-18T22:34:28.946Z,51.93
2022-08-18T22:37:09.809Z,51.76
2022-08-18T22:39:55.158Z,51.65
2022-08-18T22:42:30.308Z,51.88
2022-08-18T22:45:00.204Z,51.97
2022-08-18T22:47:30.104Z,51.81
2022-08-18T22:50:01.621Z,52.17
2022-08-18T22:52:37.423Z,51.64
2022-08-18T22:55:09.582Z,51.75
2022-08-18T22:57:38.887Z,51.98
2022-08-18T23:00:11.921Z,52.20
2022-08-18T23:02:39.028Z,52.11
2022-08-18T23:05:06.904Z,51.98
2022-08-18T23:07:34.105Z,52.14
2022-08-18T23:10:01.026Z,52.16
2022-08-18T23:12:27.851Z,52.43
2022-08-18T23:14:54.906Z,52.21
2022-08-18T23:17:21.936Z,52.33
2022-08-18T23:19:52.278Z,52.38
2022-08-18T23:22:19.401Z,52.46
2022-08-18T23:24:46.235Z,52.42
2022-08-18T23:27:13.122Z,52.52
2022-08-18T23:29:41.186Z,52.62
2022-08-18T23:32:08.164Z,52.59
2022-08-18T23:34:36.576Z,52.97
2022-08-18T23:37:05.027Z,52.81
2022-08-18T23:39:34.597Z,52.85
2022-08-18T23:42:03.748Z,53.05
2022-08-18T23:44:31.015Z,52.92
2022-08-18T23:46:59.812Z,53.04
2022-08-18T23:49:28.528Z,53.17
2022-08-18T23:51:56.089Z,53.17
2022-08-18T23:54:31.623Z,52.97
2022-08-18T23:56:58.771Z,53.09
2022-08-18T23:59:27.582Z,53.16
